Time;durP1;ratioP1;P1;durP2;ratioP2;P2;SDS_P1;SDS_P2;PMS_P1;PMS_P2;Temp;Humidity;BMP_temperature;BMP_pressure;BME280_temperature;BME280_humidity;BME280_pressure;Samples;Min_cycle;Max_cycle;Signal;HPM_P1;HPM_P2
2023/07/27 00:01:15;;;;;;;3.58;1.20;;;;;;;;;;10356937;28;20406;-95
2023/07/27 00:06:23;;;;;;;0.90;0.82;;;;;;;;;;10353015;28;20053;-92
2023/07/27 00:11:30;;;;;;;2.75;0.82;;;;;;;;;;10365349;28;20405;-92
2023/07/27 00:16:41;;;;;;;3.50;0.90;;;;;;;;;;10350723;28;20046;-92
2023/07/27 00:21:47;;;;;;;0.75;0.63;;;;;;;;;;10350518;28;20632;-92
2023/07/27 00:27:04;;;;;;;1.02;0.80;;;;;;;;;;10366217;28;20415;-91
2023/07/27 00:32:19;;;;;;;1.92;0.90;;;;;;;;;;10365729;28;20045;-92
2023/07/27 00:37:22;;;;;;;1.08;0.75;;;;;;;;;;10371120;28;20137;-92
2023/07/27 00:42:29;;;;;;;1.15;1.00;;;;;;;;;;10375293;28;20068;-92
2023/07/27 00:47:39;;;;;;;1.30;0.80;;;;;;;;;;10359765;28;20068;-91
2023/07/27 00:52:48;;;;;;;1.20;0.90;;;;;;;;;;10360996;28;20045;-92
2023/07/27 00:57:54;;;;;;;0.70;0.65;;;;;;;;;;10357610;28;20478;-93
2023/07/27 01:03:06;;;;;;;1.63;0.80;;;;;;;;;;10357333;28;20076;-92
2023/07/27 01:08:11;;;;;;;1.05;0.75;;;;;;;;;;10355913;28;20080;-91
2023/07/27 01:13:29;;;;;;;0.70;0.70;;;;;;;;;;10358855;28;20088;-92
2023/07/27 01:18:45;;;;;;;2.53;0.70;;;;;;;;;;10348742;28;20061;-91
2023/07/27 01:24:19;;;;;;;0.98;0.88;;;;;;;;;;10357182;28;20065;-92
2023/07/27 01:29:50;;;;;;;1.85;0.90;;;;;;;;;;10350131;28;20171;-92
2023/07/27 01:34:59;;;;;;;4.00;0.95;;;;;;;;;;10364195;28;20061;-91
2023/07/27 01:40:11;;;;;;;1.15;1.02;;;;;;;;;;10372834;28;20416;-92
2023/07/27 01:45:18;;;;;;;1.45;0.90;;;;;;;;;;10382969;28;20077;-91
2023/07/27 01:50:24;;;;;;;1.00;0.90;;;;;;;;;;10340751;28;20052;-92
2023/07/27 01:55:32;;;;;;;2.30;0.90;;;;;;;;;;10354152;28;20045;-91
2023/07/27 02:00:38;;;;;;;1.15;0.70;;;;;;;;;;10364550;28;20050;-92
2023/07/27 02:05:45;;;;;;;1.15;0.90;;;;;;;;;;10343367;28;20065;-92
2023/07/27 02:10:54;;;;;;;1.05;0.82;;;;;;;;;;10358711;28;20071;-92
2023/07/27 02:16:06;;;;;;;1.75;0.85;;;;;;;;;;10360965;28;20072;-92
2023/07/27 02:21:12;;;;;;;0.63;0.63;;;;;;;;;;10356747;28;20073;-92
2023/07/27 02:26:20;;;;;;;1.13;0.65;;;;;;;;;;10357708;28;20053;-92
2023/07/27 02:31:27;;;;;;;1.13;0.95;;;;;;;;;;10349006;28;20421;-92
2023/07/27 02:36:35;;;;;;;0.60;0.50;;;;;;;;;;10358360;28;20042;-92
2023/07/27 02:41:47;;;;;;;1.58;0.93;;;;;;;;;;10356012;28;20061;-93
2023/07/27 02:47:29;;;;;;;0.80;0.60;;;;;;;;;;10359932;28;20053;-94
2023/07/27 02:53:50;;;;;;;1.83;0.80;;;;;;;;;;10386794;28;20049;-94
2023/07/27 03:05:10;;;;;;;1.17;0.77;;;;;;;;;;10249384;28;20078;-92
2023/07/27 03:10:38;;;;;;;1.25;0.65;;;;;;;;;;10247104;28;20064;-92
2023/07/27 03:16:11;;;;;;;1.63;0.80;;;;;;;;;;10357238;28;20124;-92
2023/07/27 03:21:30;;;;;;;0.80;0.73;;;;;;;;;;10350890;28;20081;-94
2023/07/27 03:26:56;;;;;;;1.25;0.70;;;;;;;;;;10367917;28;20042;-94
2023/07/27 03:32:01;;;;;;;1.30;0.93;;;;;;;;;;10353608;28;20049;-92
2023/07/27 03:37:48;;;;;;;1.08;0.80;;;;;;;;;;10355751;28;20387;-93
2023/07/27 03:55:09;;;;;;;1.27;1.02;;;;;;;;;;10397883;28;20069;-93
2023/07/27 04:01:24;;;;;;;1.70;0.80;;;;;;;;;;10404332;28;20053;-96
2023/07/27 04:07:15;;;;;;;1.77;0.90;;;;;;;;;;10276884;28;20113;-95
2023/07/27 04:12:47;;;;;;;1.90;0.60;;;;;;;;;;10257497;28;20596;-93
2023/07/27 04:18:03;;;;;;;1.40;0.80;;;;;;;;;;10332189;28;20097;-91
2023/07/27 04:23:11;;;;;;;1.05;0.77;;;;;;;;;;10302080;28;20073;-93
2023/07/27 04:28:14;;;;;;;2.30;0.90;;;;;;;;;;10344342;28;20061;-91
2023/07/27 04:33:18;;;;;;;2.17;1.00;;;;;;;;;;10347062;28;20035;-91
2023/07/27 04:38:23;;;;;;;1.27;0.98;;;;;;;;;;10310173;28;20116;-91
2023/07/27 04:43:34;;;;;;;2.30;1.02;;;;;;;;;;10304460;28;20050;-92
2023/07/27 04:48:39;;;;;;;1.15;0.77;;;;;;;;;;10334826;28;20078;-91
2023/07/27 04:53:49;;;;;;;2.65;1.05;;;;;;;;;;10308525;28;20469;-91
2023/07/27 04:58:53;;;;;;;1.20;0.90;;;;;;;;;;10326323;28;20070;-92
2023/07/27 05:04:17;;;;;;;1.63;0.80;;;;;;;;;;10326363;28;20050;-92
2023/07/27 05:09:23;;;;;;;1.17;1.00;;;;;;;;;;10327365;28;20072;-94
2023/07/27 05:14:50;;;;;;;1.65;1.05;;;;;;;;;;10334644;28;20050;-92
2023/07/27 05:20:10;;;;;;;2.20;1.33;;;;;;;;;;10339591;28;20064;-91
2023/07/27 05:37:29;;;;;;;1.85;1.10;;;;;;;;;;10199968;29;20052;-92
2023/07/27 05:48:48;;;;;;;1.55;0.80;;;;;;;;;;10022575;29;20066;-95
2023/07/27 05:54:11;;;;;;;1.17;0.80;;;;;;;;;;10143191;29;20562;-92
2023/07/27 05:59:51;;;;;;;1.02;0.90;;;;;;;;;;10305222;28;20053;-94
2023/07/27 06:05:40;;;;;;;1.50;1.30;;;;;;;;;;10374546;28;20116;-94
2023/07/27 06:11:13;;;;;;;1.45;0.90;;;;;;;;;;10371504;28;20042;-93
2023/07/27 06:16:32;;;;;;;1.00;0.80;;;;;;;;;;10384248;28;20042;-91
2023/07/27 06:21:45;;;;;;;1.50;0.70;;;;;;;;;;10383670;28;20053;-94
2023/07/27 06:26:49;;;;;;;4.50;1.10;;;;;;;;;;10377168;28;20053;-92
2023/07/27 06:31:55;;;;;;;1.25;1.13;;;;;;;;;;10375134;28;20074;-93
2023/07/27 06:37:00;;;;;;;3.17;0.93;;;;;;;;;;10379005;28;20124;-92
2023/07/27 06:42:11;;;;;;;0.93;0.90;;;;;;;;;;10361737;28;20054;-93
2023/07/27 06:47:20;;;;;;;1.60;1.05;;;;;;;;;;10364659;28;20058;-92
2023/07/27 06:52:26;;;;;;;1.57;0.90;;;;;;;;;;10364497;28;20060;-92
2023/07/27 06:57:33;;;;;;;1.77;0.93;;;;;;;;;;10335916;28;20190;-93
2023/07/27 07:02:38;;;;;;;1.60;1.02;;;;;;;;;;10387428;28;20085;-95
2023/07/27 07:07:43;;;;;;;3.22;1.42;;;;;;;;;;10379041;28;20050;-92
2023/07/27 07:12:47;;;;;;;1.35;1.08;;;;;;;;;;10373857;28;20046;-93
2023/07/27 07:17:57;;;;;;;1.02;0.90;;;;;;;;;;10354520;28;20053;-94
2023/07/27 07:23:05;;;;;;;2.17;1.63;;;;;;;;;;10361067;28;20128;-93
2023/07/27 07:28:31;;;;;;;1.30;1.05;;;;;;;;;;10379945;28;20045;-93
2023/07/27 07:33:41;;;;;;;2.15;1.17;;;;;;;;;;10361860;28;20081;-93
2023/07/27 07:38:46;;;;;;;1.33;1.00;;;;;;;;;;10383352;28;20064;-93
2023/07/27 07:43:51;;;;;;;3.15;1.17;;;;;;;;;;10366516;28;20334;-93
2023/07/27 07:49:04;;;;;;;1.23;1.00;;;;;;;;;;10385475;28;20077;-92
2023/07/27 07:54:09;;;;;;;1.13;1.00;;;;;;;;;;10360505;28;20076;-95
2023/07/27 07:59:14;;;;;;;2.05;1.10;;;;;;;;;;10364030;28;20056;-94
2023/07/27 08:04:31;;;;;;;1.58;1.15;;;;;;;;;;10358122;28;20050;-93
2023/07/27 08:09:56;;;;;;;1.17;1.00;;;;;;;;;;10362537;28;20412;-92
2023/07/27 08:20:42;;;;;;;0.88;0.80;;;;;;;;;;10358429;28;21406;-92
2023/07/27 08:26:01;;;;;;;2.05;0.90;;;;;;;;;;10377200;28;20415;-93
2023/07/27 08:31:27;;;;;;;0.57;0.52;;;;;;;;;;10358474;28;20058;-94
2023/07/27 08:49:36;;;;;;;0.90;0.65;;;;;;;;;;10368159;28;20045;-95
2023/07/27 08:54:41;;;;;;;0.63;0.55;;;;;;;;;;10361714;28;20060;-93
2023/07/27 09:00:24;;;;;;;0.50;0.40;;;;;;;;;;10381579;28;20061;-94
2023/07/27 09:16:52;;;;;;;0.90;0.47;;;;;;;;;;10412942;28;20054;-94
2023/07/27 09:28:17;;;;;;;1.40;0.30;;;;;;;;;;10236622;28;20546;-95
2023/07/27 09:33:41;;;;;;;0.40;0.40;;;;;;;;;;10358779;28;20056;-93
2023/07/27 09:44:58;;;;;;;0.90;0.70;;;;;;;;;;10347214;28;20050;-93
2023/07/27 09:50:03;;;;;;;0.50;0.50;;;;;;;;;;10344242;28;20053;-95
2023/07/27 09:55:08;;;;;;;0.60;0.60;;;;;;;;;;10377236;28;20057;-94
2023/07/27 10:00:21;;;;;;;0.50;0.50;;;;;;;;;;10369657;28;20050;-93
2023/07/27 10:05:27;;;;;;;1.77;0.50;;;;;;;;;;10349649;28;20046;-94
2023/07/27 10:10:38;;;;;;;0.40;0.40;;;;;;;;;;10370733;28;20045;-92
2023/07/27 10:15:44;;;;;;;0.40;0.40;;;;;;;;;;10354123;28;20057;-92
2023/07/27 10:20:48;;;;;;;0.77;0.50;;;;;;;;;;10354373;28;20042;-92
2023/07/27 10:26:12;;;;;;;0.60;0.60;;;;;;;;;;10356937;28;20046;-93
2023/07/27 10:31:28;;;;;;;1.02;0.52;;;;;;;;;;10316705;28;20049;-92
2023/07/27 10:36:53;;;;;;;0.82;0.40;;;;;;;;;;10330618;28;20054;-90
2023/07/27 10:42:12;;;;;;;0.77;0.50;;;;;;;;;;10362206;28;20060;-94
2023/07/27 10:47:22;;;;;;;0.50;0.50;;;;;;;;;;10422991;28;20057;-95
2023/07/27 10:52:31;;;;;;;0.88;0.60;;;;;;;;;;10391758;28;20058;-93
2023/07/27 10:57:42;;;;;;;0.40;0.40;;;;;;;;;;11668986;22;20072;-82
2023/07/27 11:03:33;;;;;;;0.40;0.40;;;;;;;;;;10439061;28;20630;-83
2023/07/27 15:30:16;;;;;;;1.05;0.63;;;;;;;;;;10233460;28;20507;-92
2023/07/27 15:35:20;;;;;;;0.82;0.82;;;;;;;;;;10244656;28;20059;-92
2023/07/27 15:40:24;;;;;;;0.95;0.57;;;;;;;;;;10255492;28;20657;-91
2023/07/27 15:45:51;;;;;;;1.42;0.95;;;;;;;;;;10261443;28;20379;-91
2023/07/27 15:51:41;;;;;;;1.25;0.90;;;;;;;;;;10275823;28;20078;-93
2023/07/27 16:08:24;;;;;;;2.53;1.00;;;;;;;;;;10244431;29;20083;-92
2023/07/27 16:19:49;;;;;;;1.63;1.35;;;;;;;;;;10256811;29;20051;-93
2023/07/27 16:25:31;;;;;;;1.83;1.20;;;;;;;;;;10267361;28;20653;-92
2023/07/27 16:31:19;;;;;;;1.33;1.20;;;;;;;;;;10261269;28;20092;-93
2023/07/27 16:36:47;;;;;;;2.30;1.63;;;;;;;;;;10262364;28;20134;-92
2023/07/27 16:41:59;;;;;;;1.50;1.30;;;;;;;;;;10267157;28;20403;-92
2023/07/27 16:47:29;;;;;;;2.13;1.80;;;;;;;;;;10285687;28;20087;-91
2023/07/27 16:52:53;;;;;;;1.48;1.33;;;;;;;;;;10242913;28;20056;-92
2023/07/27 17:03:45;;;;;;;1.38;1.10;;;;;;;;;;10249591;28;20063;-92
2023/07/27 17:09:06;;;;;;;4.25;1.77;;;;;;;;;;10241969;28;20134;-92
2023/07/27 17:14:26;;;;;;;1.80;1.50;;;;;;;;;;10258708;28;20051;-92
2023/07/27 17:20:38;;;;;;;1.25;1.10;;;;;;;;;;10237379;29;20078;-91
2023/07/27 17:26:04;;;;;;;2.30;1.67;;;;;;;;;;10242410;28;20062;-90
2023/07/27 17:31:33;;;;;;;;;;;;;;;;;;;;;
2023/07/27 17:36:52;;;;;;;1.48;1.33;;;;;;;;;;10238894;28;20519;-92
2023/07/27 17:42:36;;;;;;;2.78;1.42;;;;;;;;;;10237477;28;20065;-90
2023/07/27 17:47:44;;;;;;;;;;;;;;;;;;10183955;28;20102;-91
2023/07/27 17:58:25;;;;;;;2.25;0.77;;;;;;;;;;10249017;28;20055;-90
2023/07/27 18:04:04;;;;;;;1.33;0.77;;;;;;;;;;10274347;28;20102;-91
2023/07/27 18:09:22;;;;;;;;;;;;;;;;;;10279649;28;20525;-93
2023/07/27 18:14:44;;;;;;;1.00;0.90;;;;;;;;;;10275672;28;19922;-91
2023/07/27 18:19:56;;;;;;;2.25;1.15;;;;;;;;;;10264134;28;20603;-92
2023/07/27 18:25:22;;;;;;;1.20;0.90;;;;;;;;;;10265352;28;20055;-94
2023/07/27 18:30:37;;;;;;;2.38;1.77;;;;;;;;;;10209201;28;20585;-91
2023/07/27 18:36:14;;;;;;;2.17;1.35;;;;;;;;;;10213649;28;20062;-92
2023/07/27 18:41:23;;;;;;;2.10;1.88;;;;;;;;;;10263154;28;20110;-91
2023/07/27 18:47:03;;;;;;;3.20;1.70;;;;;;;;;;10273000;28;20141;-91
2023/07/27 18:52:11;;;;;;;1.83;1.60;;;;;;;;;;10219514;28;20087;-91
2023/07/27 18:57:22;;;;;;;2.20;1.25;;;;;;;;;;10249305;28;20047;-91
2023/07/27 19:02:51;;;;;;;1.45;1.20;;;;;;;;;;10243780;28;20049;-90
2023/07/27 19:07:55;;;;;;;2.67;2.03;;;;;;;;;;10247417;28;20668;-90
2023/07/27 19:13:03;;;;;;;2.22;1.67;;;;;;;;;;10240842;28;20054;-90
2023/07/27 19:18:21;;;;;;;1.73;1.40;;;;;;;;;;10265194;28;20438;-91
2023/07/27 19:23:52;;;;;;;2.50;1.90;;;;;;;;;;10235091;28;20592;-89
2023/07/27 19:29:17;;;;;;;2.70;1.70;;;;;;;;;;10233818;28;20051;-90
2023/07/27 19:34:43;;;;;;;2.65;1.50;;;;;;;;;;10238507;28;20073;-89
2023/07/27 19:39:59;;;;;;;1.90;1.70;;;;;;;;;;10231523;28;20403;-90
2023/07/27 19:45:16;;;;;;;1.77;1.50;;;;;;;;;;10248482;28;20059;-89
2023/07/27 19:50:40;;;;;;;1.85;1.45;;;;;;;;;;10237320;28;20057;-90
2023/07/27 19:56:00;;;;;;;2.33;1.80;;;;;;;;;;10232712;28;20047;-89
2023/07/27 20:01:19;;;;;;;2.08;1.60;;;;;;;;;;10235654;28;20043;-90
2023/07/27 20:06:26;;;;;;;2.33;1.63;;;;;;;;;;10261627;28;20055;-90
2023/07/27 20:11:31;;;;;;;1.63;1.40;;;;;;;;;;10256980;28;20051;-89
2023/07/27 20:22:14;;;;;;;3.00;1.40;;;;;;;;;;10244373;28;20077;-93
2023/07/27 20:27:18;;;;;;;2.92;1.70;;;;;;;;;;10261165;28;20050;-91
2023/07/27 20:32:23;;;;;;;2.15;1.45;;;;;;;;;;10273919;28;20047;-92
2023/07/27 20:37:50;;;;;;;;;;;;;;;;;;;;;
2023/07/27 20:43:15;;;;;;;1.05;0.88;;;;;;;;;;10213838;28;20063;-93
2023/07/27 20:48:27;;;;;;;1.27;1.17;;;;;;;;;;10269517;28;20356;-94
2023/07/27 20:53:58;;;;;;;1.48;0.95;;;;;;;;;;10270760;28;20055;-93
2023/07/27 20:59:25;;;;;;;0.82;0.73;;;;;;;;;;10273769;28;20070;-94
2023/07/27 21:04:31;;;;;;;0.80;0.77;;;;;;;;;;10262435;28;20082;-93
2023/07/27 21:09:43;;;;;;;1.80;1.33;;;;;;;;;;10269901;28;20050;-93
2023/07/27 21:14:55;;;;;;;1.58;1.30;;;;;;;;;;10263594;28;20054;-93
2023/07/27 21:20:03;;;;;;;1.13;0.98;;;;;;;;;;10232696;29;20067;-94
2023/07/27 21:25:10;;;;;;;0.80;0.80;;;;;;;;;;10231384;28;20052;-94
2023/07/27 21:30:26;;;;;;;0.63;0.63;;;;;;;;;;10220955;28;20070;-94
2023/07/27 21:35:46;;;;;;;0.95;0.73;;;;;;;;;;10234130;29;20058;-94
2023/07/27 21:41:16;;;;;;;1.45;1.10;;;;;;;;;;10231687;29;20557;-94
2023/07/27 21:46:20;;;;;;;1.15;1.00;;;;;;;;;;10229340;28;20085;-92
2023/07/27 21:51:34;;;;;;;1.42;0.90;;;;;;;;;;10230151;29;20089;-95
2023/07/27 21:56:42;;;;;;;0.73;0.57;;;;;;;;;;10231857;29;20051;-93
2023/07/27 22:01:50;;;;;;;1.30;0.98;;;;;;;;;;10230410;29;20054;-92
2023/07/27 22:07:01;;;;;;;1.00;0.90;;;;;;;;;;10255186;28;20083;-94
2023/07/27 22:12:08;;;;;;;1.60;1.10;;;;;;;;;;10228247;29;20058;-93
2023/07/27 22:17:15;;;;;;;1.48;0.70;;;;;;;;;;10225818;29;20055;-92
2023/07/27 22:22:33;;;;;;;0.60;0.60;;;;;;;;;;10227051;28;20055;-94
2023/07/27 22:27:41;;;;;;;0.40;0.40;;;;;;;;;;10217771;29;20138;-92
2023/07/27 22:32:50;;;;;;;0.30;0.30;;;;;;;;;;10226467;28;20138;-92
2023/07/27 22:37:54;;;;;;;;;;;;;;;;;;10227615;29;20051;-93
2023/07/27 22:43:02;;;;;;;0.45;0.35;;;;;;;;;;10226291;28;20263;-93
2023/07/27 22:48:06;;;;;;;0.32;0.32;;;;;;;;;;10226908;29;20075;-94
2023/07/27 22:53:10;;;;;;;0.50;0.45;;;;;;;;;;10227741;28;20051;-93
2023/07/27 22:58:15;;;;;;;0.50;0.50;;;;;;;;;;10228605;28;20706;-92
2023/07/27 23:03:21;;;;;;;0.50;0.50;;;;;;;;;;10236311;28;20094;-94
2023/07/27 23:08:25;;;;;;;;;;;;;;;;;;10236190;29;20040;-93
2023/07/27 23:13:38;;;;;;;0.35;0.32;;;;;;;;;;10235686;28;20438;-93
2023/07/27 23:18:44;;;;;;;;;;;;;;;;;;10234600;29;20050;-93
2023/07/27 23:23:52;;;;;;;2.40;0.43;;;;;;;;;;10250355;28;19922;-93
2023/07/27 23:28:58;;;;;;;0.20;0.20;;;;;;;;;;10251282;29;20099;-93
2023/07/27 23:34:04;;;;;;;0.30;0.30;;;;;;;;;;10233699;28;20047;-92
2023/07/27 23:39:08;;;;;;;0.30;0.30;;;;;;;;;;10224092;29;20086;-93
2023/07/27 23:44:16;;;;;;;1.05;0.52;;;;;;;;;;10238426;28;20130;-92
2023/07/27 23:49:22;;;;;;;0.40;0.30;;;;;;;;;;10238830;29;20043;-93
2023/07/27 23:54:26;;;;;;;0.40;0.30;;;;;;;;;;10243631;28;20114;-93
2023/07/27 23:59:34;;;;;;;0.55;0.40;;;;;;;;;;10258246;29;20043;-93
